createdAt,value
2022-10-28T00:01:23.391Z,29.05
2022-10-28T00:03:57.400Z,26.95
2022-10-28T00:06:32.196Z,26.13
2022-10-28T00:09:00.428Z,26.95
2022-10-28T00:11:32.108Z,27.00
2022-10-28T00:14:04.322Z,25.35
2022-10-28T00:16:35.535Z,26.38
2022-10-28T00:19:06.413Z,25.75
2022-10-28T00:21:37.336Z,24.77
2022-10-28T00:24:06.822Z,25.05
2022-10-28T00:26:36.809Z,22.45
2022-10-28T00:29:12.607Z,22.33
2022-10-28T00:31:41.197Z,21.50
2022-10-28T00:34:14.163Z,20.02
2022-10-28T00:36:44.703Z,22.13
2022-10-28T00:39:21.341Z,24.00
2022-10-28T00:41:55.369Z,22.33
2022-10-28T00:45:02.543Z,23.88
2022-10-28T00:47:52.734Z,19.73
2022-10-28T00:50:41.493Z,20.25
2022-10-28T00:53:22.067Z,20.75
2022-10-28T00:55:50.553Z,19.08
2022-10-28T00:58:22.563Z,19.75
2022-10-28T01:00:49.971Z,19.13
2022-10-28T01:03:18.247Z,17.83
2022-10-28T01:05:48.864Z,17.92
2022-10-28T01:08:17.751Z,17.58
2022-10-28T01:11:26.736Z,17.60
2022-10-28T01:14:22.880Z,16.10
2022-10-28T01:17:09.842Z,17.88
2022-10-28T01:19:55.387Z,17.23
2022-10-28T01:23:03.628Z,17.85
2022-10-28T01:25:59.471Z,16.88
2022-10-28T01:29:16.041Z,18.85
2022-10-28T01:31:59.663Z,18.13
2022-10-28T01:34:33.187Z,18.67
2022-10-28T01:37:55.709Z,18.45
2022-10-28T01:41:04.029Z,19.38
2022-10-28T01:43:54.234Z,16.88
2022-10-28T01:46:31.707Z,17.70
2022-10-28T01:49:17.847Z,18.13
2022-10-28T01:52:00.331Z,18.58
2022-10-28T01:54:31.284Z,18.50
2022-10-28T01:57:00.647Z,17.75
2022-10-28T01:59:31.547Z,16.08
2022-10-28T02:01:59.185Z,16.02
2022-10-28T02:04:26.775Z,17.10
2022-10-28T02:07:04.492Z,17.40
2022-10-28T02:10:10.165Z,17.17
2022-10-28T02:12:39.018Z,16.00
2022-10-28T02:15:21.658Z,16.25
2022-10-28T02:18:16.319Z,15.32
2022-10-28T02:20:56.406Z,16.23
2022-10-28T02:23:53.463Z,15.60
2022-10-28T02:26:20.711Z,14.95
2022-10-28T02:29:20.329Z,14.55
2022-10-28T02:31:58.228Z,15.20
2022-10-28T02:34:36.720Z,14.55
2022-10-28T02:37:13.566Z,14.68
2022-10-28T02:39:47.175Z,15.07
2022-10-28T02:42:28.408Z,14.55
2022-10-28T02:45:06.820Z,14.93
2022-10-28T02:47:40.598Z,13.43
2022-10-28T02:50:15.048Z,14.25
2022-10-28T02:52:47.187Z,15.23
2022-10-28T02:55:15.047Z,14.80
2022-10-28T02:57:48.569Z,15.15
2022-10-28T03:00:24.649Z,14.88
2022-10-28T03:02:52.622Z,15.45
2022-10-28T03:05:20.999Z,15.70
2022-10-28T03:07:48.530Z,14.45
2022-10-28T03:10:16.149Z,15.95
2022-10-28T03:12:43.815Z,15.70
2022-10-28T03:15:11.881Z,15.00
2022-10-28T03:17:40.966Z,15.00
2022-10-28T03:20:09.207Z,13.73
2022-10-28T03:22:40.282Z,13.93
2022-10-28T03:25:08.180Z,14.43
2022-10-28T03:27:35.776Z,13.02
2022-10-28T03:30:03.651Z,13.90
2022-10-28T03:32:31.457Z,13.57
2022-10-28T03:34:58.985Z,13.05
2022-10-28T03:37:26.513Z,12.73
2022-10-28T03:39:53.932Z,13.27
2022-10-28T03:42:21.448Z,12.90
2022-10-28T03:44:49.100Z,12.95
2022-10-28T03:47:16.503Z,13.13
2022-10-28T03:49:43.926Z,13.95
2022-10-28T03:52:11.667Z,12.75
2022-10-28T03:54:39.123Z,13.63
2022-10-28T03:57:06.715Z,13.35
2022-10-28T03:59:34.261Z,12.75
2022-10-28T04:02:01.958Z,13.75
2022-10-28T04:04:30.754Z,13.57
2022-10-28T04:06:58.900Z,13.35
2022-10-28T04:09:26.431Z,13.00
2022-10-28T04:11:54.007Z,13.60
2022-10-28T04:14:21.471Z,13.35
2022-10-28T04:16:49.657Z,14.05
2022-10-28T04:19:17.141Z,13.10
2022-10-28T04:21:44.622Z,12.68
2022-10-28T04:24:12.241Z,13.15
2022-10-28T04:26:39.717Z,12.32
2022-10-28T04:29:07.609Z,12.60
2022-10-28T04:31:36.161Z,12.80
2022-10-28T04:34:03.760Z,12.32
2022-10-28T04:36:31.226Z,12.57
2022-10-28T04:38:58.735Z,12.15
2022-10-28T04:41:27.842Z,12.35
2022-10-28T04:43:56.476Z,12.70
2022-10-28T04:46:24.180Z,12.02
2022-10-28T04:48:54.157Z,12.82
2022-10-28T04:51:21.765Z,12.30
2022-10-28T04:53:49.790Z,12.63
2022-10-28T04:56:17.504Z,13.23
2022-10-28T04:58:45.038Z,12.63
2022-10-28T05:01:12.760Z,12.85
2022-10-28T05:03:40.396Z,13.05
2022-10-28T05:06:08.038Z,12.95
2022-10-28T05:08:49.105Z,13.57
2022-10-28T05:11:16.662Z,13.27
2022-10-28T05:13:44.495Z,12.95
2022-10-28T05:16:12.287Z,14.13
2022-10-28T05:18:39.775Z,13.27
2022-10-28T05:21:08.499Z,13.13
2022-10-28T05:23:36.242Z,14.25
2022-10-28T05:26:03.853Z,15.55
2022-10-28T05:28:31.568Z,15.43
2022-10-28T05:33:40.915Z,17.17
2022-10-28T05:36:13.293Z,15.23
2022-10-28T05:38:42.678Z,15.85
2022-10-28T05:41:10.077Z,15.00
2022-10-28T05:43:52.900Z,15.80
2022-10-28T05:46:22.456Z,15.27
2022-10-28T05:48:50.448Z,16.10
2022-10-28T05:51:17.855Z,15.02
2022-10-28T05:53:45.486Z,15.20
2022-10-28T05:56:13.130Z,15.70
2022-10-28T05:58:40.692Z,16.17
2022-10-28T06:01:09.976Z,14.82
2022-10-28T06:03:37.734Z,16.90
2022-10-28T06:06:05.313Z,15.68
2022-10-28T06:08:33.039Z,17.02
2022-10-28T06:11:00.246Z,16.13
2022-10-28T06:13:30.503Z,16.42
2022-10-28T06:15:58.187Z,16.25
2022-10-28T06:18:25.766Z,15.75
2022-10-28T06:20:58.455Z,16.73
2022-10-28T06:23:32.639Z,16.13
2022-10-28T06:28:53.769Z,16.83
2022-10-28T06:31:24.801Z,16.40
2022-10-28T06:33:52.319Z,16.98
2022-10-28T06:36:19.810Z,17.08
2022-10-28T06:41:35.910Z,18.75
2022-10-28T06:44:03.773Z,18.08
2022-10-28T06:46:31.485Z,17.73
2022-10-28T06:49:03.361Z,17.05
2022-10-28T06:51:32.147Z,17.70
2022-10-28T06:53:59.921Z,16.83
2022-10-28T06:56:27.646Z,15.25
2022-10-28T06:58:56.060Z,16.33
2022-10-28T07:01:26.279Z,17.00
2022-10-28T07:03:54.993Z,16.90
2022-10-28T07:06:30.640Z,15.20
2022-10-28T07:08:58.096Z,13.75
2022-10-28T07:11:25.482Z,11.07
2022-10-28T07:13:52.999Z,10.55
2022-10-28T07:16:20.369Z,10.73
2022-10-28T07:18:47.968Z,10.43
2022-10-28T07:21:15.550Z,10.88
2022-10-28T07:23:42.929Z,10.20
2022-10-28T07:26:10.403Z,10.52
2022-10-28T07:28:37.890Z,9.95
2022-10-28T07:31:05.498Z,10.85
2022-10-28T07:33:32.994Z,10.82
2022-10-28T07:36:02.771Z,9.93
2022-10-28T07:38:30.361Z,10.02
2022-10-28T07:40:58.747Z,9.32
2022-10-28T07:43:26.357Z,10.02
2022-10-28T07:45:58.231Z,9.98
2022-10-28T07:48:25.976Z,9.63
2022-10-28T07:50:54.629Z,9.20
2022-10-28T07:53:26.257Z,9.55
2022-10-28T07:56:04.162Z,8.95
2022-10-28T07:58:33.043Z,8.52
2022-10-28T08:01:12.424Z,9.10
2022-10-28T08:03:41.455Z,9.05
2022-10-28T08:06:21.716Z,9.02
2022-10-28T08:08:54.863Z,8.50
2022-10-28T08:11:24.429Z,8.73
2022-10-28T08:13:53.510Z,8.52
2022-10-28T08:16:21.060Z,8.85
2022-10-28T08:18:49.842Z,8.15
2022-10-28T08:38:48.569Z,7.93
2022-10-28T08:41:40.902Z,7.30
2022-10-28T08:44:38.880Z,8.05
2022-10-28T08:47:31.171Z,8.05
2022-10-28T08:50:12.546Z,8.57
2022-10-28T08:53:01.401Z,7.88
2022-10-28T08:55:39.528Z,7.75
2022-10-28T08:58:26.291Z,8.18
2022-10-28T09:00:56.798Z,7.50
2022-10-28T09:09:59.952Z,7.60
2022-10-28T10:10:22.085Z,6.50
2022-10-28T10:12:52.879Z,6.15
2022-10-28T10:15:59.844Z,5.72
2022-10-28T10:18:41.563Z,6.18
2022-10-28T10:21:10.038Z,5.88
2022-10-28T10:26:17.108Z,6.38
2022-10-28T10:28:47.233Z,6.03
2022-10-28T10:31:37.957Z,6.18
2022-10-28T10:34:06.362Z,5.70
2022-10-28T10:36:39.138Z,5.40
2022-10-28T10:45:29.157Z,5.85
2022-10-28T10:48:15.897Z,5.75
2022-10-28T10:50:48.447Z,6.22
2022-10-28T10:53:34.966Z,6.13
2022-10-28T10:56:11.320Z,6.05
2022-10-28T10:58:49.317Z,5.80
2022-10-28T11:01:25.294Z,5.78
2022-10-28T11:50:37.759Z,5.68
2022-10-28T11:53:52.594Z,6.60
2022-10-28T11:59:58.113Z,6.10
2022-10-28T12:03:01.960Z,6.75
2022-10-28T12:05:44.633Z,6.25
2022-10-28T12:08:35.481Z,6.18
2022-10-28T12:11:33.783Z,6.15
2022-10-28T12:14:36.198Z,6.85
2022-10-28T12:17:24.108Z,6.15
2022-10-28T12:20:23.376Z,7.00
2022-10-28T12:22:57.477Z,7.20
2022-10-28T12:28:59.611Z,7.10
2022-10-28T12:31:44.529Z,7.43
2022-10-28T12:34:19.041Z,5.95
2022-10-28T12:37:00.167Z,7.05
2022-10-28T12:39:48.182Z,6.20
2022-10-28T12:42:33.124Z,6.78
2022-10-28T12:45:05.597Z,7.03
2022-10-28T12:47:49.225Z,7.35
2022-10-28T12:50:54.877Z,7.57
2022-10-28T12:53:54.635Z,8.57
2022-10-28T12:56:38.267Z,9.50
2022-10-28T12:59:14.461Z,10.23
2022-10-28T13:01:45.099Z,9.52
2022-10-28T13:04:17.035Z,9.00
2022-10-28T13:07:28.443Z,8.93
2022-10-28T13:10:34.828Z,8.00
2022-10-28T13:13:40.530Z,7.97
2022-10-28T13:17:04.861Z,7.60
2022-10-28T13:19:57.035Z,7.30
2022-10-28T13:22:54.787Z,7.65
2022-10-28T13:25:57.499Z,7.65
2022-10-28T13:28:34.931Z,7.72
2022-10-28T13:31:07.747Z,7.40
2022-10-28T13:33:38.655Z,7.90
2022-10-28T13:36:17.712Z,8.05
2022-10-28T13:38:57.170Z,8.15
2022-10-28T13:41:48.832Z,7.97
2022-10-28T13:44:24.425Z,8.40
2022-10-28T13:47:04.569Z,8.38
2022-10-28T13:49:36.479Z,9.02
2022-10-28T13:52:16.279Z,27.95
2022-10-28T13:54:47.125Z,11.48
2022-10-28T13:57:30.598Z,9.73
2022-10-28T14:03:22.395Z,8.07
2022-10-28T14:05:51.626Z,8.93
2022-10-28T14:08:33.529Z,8.02
2022-10-28T14:11:22.720Z,8.48
2022-10-28T14:14:01.247Z,9.15
2022-10-28T14:16:45.183Z,8.10
2022-10-28T14:19:13.949Z,9.60
2022-10-28T14:21:45.842Z,10.20
2022-10-28T14:24:37.177Z,11.02
2022-10-28T14:27:15.461Z,12.20
2022-10-28T14:29:57.308Z,12.75
2022-10-28T14:32:34.039Z,12.38
2022-10-28T14:35:13.827Z,12.63
2022-10-28T14:38:48.466Z,14.07
2022-10-28T14:41:47.016Z,13.50
2022-10-28T14:44:31.268Z,13.10
2022-10-28T14:47:13.427Z,14.65
2022-10-28T14:49:44.393Z,14.52
2022-10-28T14:52:18.184Z,14.07
2022-10-28T14:54:51.076Z,13.80
2022-10-28T14:57:22.992Z,13.35
2022-10-28T14:59:51.773Z,13.32
2022-10-28T15:02:32.122Z,13.65
2022-10-28T15:05:18.052Z,16.67
2022-10-28T15:07:45.803Z,17.33
2022-10-28T15:10:24.121Z,25.00
2022-10-28T15:12:52.223Z,23.27
2022-10-28T15:15:40.670Z,24.63
2022-10-28T15:18:34.195Z,27.80
2022-10-28T15:21:10.512Z,19.90
2022-10-28T15:23:38.783Z,21.10
2022-10-28T15:26:14.657Z,15.95
2022-10-28T15:28:43.499Z,16.20
2022-10-28T15:31:15.520Z,24.63
2022-10-28T15:33:43.799Z,23.05
2022-10-28T15:36:24.684Z,15.80
2022-10-28T15:39:06.324Z,14.77
2022-10-28T15:41:52.255Z,16.30
2022-10-28T15:44:43.695Z,14.82
2022-10-28T15:47:44.379Z,14.43
2022-10-28T15:50:19.027Z,13.55
2022-10-28T15:52:54.582Z,14.07
2022-10-28T15:55:47.512Z,13.73
2022-10-28T15:58:19.480Z,13.48
2022-10-28T16:00:58.677Z,12.85
2022-10-28T16:03:47.270Z,12.85
2022-10-28T16:06:54.118Z,12.40
2022-10-28T16:09:29.164Z,14.32
2022-10-28T16:12:12.618Z,13.25
2022-10-28T16:15:01.582Z,13.70
2022-10-28T16:17:36.838Z,14.05
2022-10-28T16:20:17.042Z,14.43
2022-10-28T16:22:47.486Z,14.43
2022-10-28T16:31:01.740Z,14.98
2022-10-28T16:33:35.028Z,14.93
2022-10-28T16:36:08.582Z,13.23
2022-10-28T16:38:49.400Z,13.50
2022-10-28T16:41:27.978Z,12.25
2022-10-28T16:44:02.738Z,12.50
2022-10-28T16:46:33.860Z,12.82
2022-10-28T16:49:02.712Z,12.50
2022-10-28T16:51:31.518Z,12.48
2022-10-28T16:54:01.718Z,13.32
2022-10-28T16:56:30.791Z,13.02
2022-10-28T16:58:58.247Z,12.95
2022-10-28T17:01:26.826Z,13.15
2022-10-28T17:04:01.683Z,12.35
2022-10-28T17:06:31.167Z,12.90
2022-10-28T17:09:03.818Z,12.60
2022-10-28T17:11:34.782Z,13.02
2022-10-28T17:14:04.610Z,12.95
2022-10-28T17:16:32.946Z,13.85
2022-10-28T17:22:44.125Z,12.50
2022-10-28T17:25:16.617Z,13.05
2022-10-28T17:27:50.259Z,13.75
2022-10-28T17:36:23.812Z,13.57
2022-10-28T17:38:54.433Z,14.50
2022-10-28T17:41:26.637Z,13.77
2022-10-28T17:43:55.240Z,12.40
2022-10-28T17:46:23.540Z,13.55
2022-10-28T17:48:51.393Z,13.73
2022-10-28T17:51:20.996Z,14.80
2022-10-28T17:53:55.028Z,13.68
2022-10-28T17:56:23.071Z,14.23
2022-10-28T17:58:53.998Z,12.73
2022-10-28T18:01:22.474Z,14.23
2022-10-28T18:03:52.663Z,13.20
2022-10-28T18:06:20.567Z,13.63
2022-10-28T18:11:25.246Z,13.02
2022-10-28T18:13:55.436Z,14.32
2022-10-28T18:16:28.408Z,13.15
2022-10-28T18:18:57.015Z,14.23
2022-10-28T18:21:28.380Z,14.82
2022-10-28T18:24:05.525Z,13.35
2022-10-28T18:26:38.501Z,12.48
2022-10-28T18:29:10.295Z,14.13
2022-10-28T18:31:40.929Z,14.10
2022-10-28T18:34:10.203Z,13.70
2022-10-28T18:36:38.066Z,13.80
2022-10-28T18:39:08.105Z,13.23
2022-10-28T18:41:41.955Z,13.88
2022-10-28T18:44:17.131Z,13.70
2022-10-28T18:46:46.069Z,14.25
2022-10-28T18:49:13.957Z,15.10
2022-10-28T18:51:41.992Z,13.73
2022-10-28T18:54:09.971Z,13.75
2022-10-28T18:56:37.889Z,14.32
2022-10-28T18:59:05.818Z,13.50
2022-10-28T19:01:34.395Z,14.07
2022-10-28T19:04:22.220Z,13.40
2022-10-28T19:06:49.763Z,13.07
2022-10-28T19:09:17.291Z,13.43
2022-10-28T19:11:44.831Z,12.85
2022-10-28T19:14:13.195Z,12.52
2022-10-28T19:16:40.753Z,12.73
2022-10-28T19:19:08.744Z,12.40
2022-10-28T19:21:36.214Z,12.48
2022-10-28T19:24:05.384Z,13.00
2022-10-28T19:26:33.809Z,11.98
2022-10-28T19:29:01.440Z,12.50
2022-10-28T19:31:30.950Z,12.38
2022-10-28T19:33:58.442Z,11.60
2022-10-28T19:36:29.380Z,12.60
2022-10-28T19:38:58.573Z,12.50
2022-10-28T19:41:28.968Z,10.90
2022-10-28T19:44:03.077Z,10.55
2022-10-28T19:46:35.476Z,10.63
2022-10-28T19:49:05.882Z,11.85
2022-10-28T19:51:40.362Z,10.93
2022-10-28T19:54:16.267Z,9.35
2022-10-28T19:56:45.703Z,9.45
2022-10-28T19:59:13.257Z,8.85
2022-10-28T20:01:41.753Z,9.13
2022-10-28T20:04:11.277Z,9.68
2022-10-28T20:06:40.817Z,9.43
2022-10-28T20:09:08.563Z,9.25
2022-10-28T20:11:39.057Z,9.73
2022-10-28T20:14:13.360Z,10.15
2022-10-28T20:16:42.986Z,10.45
2022-10-28T20:19:11.777Z,9.38
2022-10-28T20:21:39.851Z,10.32
2022-10-28T20:24:08.850Z,10.10
2022-10-28T20:26:49.636Z,10.40
2022-10-28T20:29:17.129Z,10.25
2022-10-28T20:31:44.927Z,10.70
2022-10-28T20:34:13.043Z,10.63
2022-10-28T20:36:46.377Z,11.13
2022-10-28T20:39:22.255Z,10.50
2022-10-28T20:41:51.483Z,9.95
2022-10-28T20:44:19.125Z,9.70
2022-10-28T20:46:49.107Z,11.38
2022-10-28T20:49:16.906Z,11.50
2022-10-28T20:51:44.441Z,11.35
2022-10-28T20:54:14.235Z,12.75
2022-10-28T20:56:42.362Z,13.20
2022-10-28T20:59:10.911Z,12.10
2022-10-28T21:01:41.020Z,12.93
2022-10-28T21:04:11.390Z,12.98
2022-10-28T21:06:39.861Z,13.23
2022-10-28T21:09:09.004Z,13.25
2022-10-28T21:11:37.606Z,13.10
2022-10-28T21:14:05.141Z,13.38
2022-10-28T21:16:33.028Z,13.45
2022-10-28T21:19:00.907Z,14.68
2022-10-28T21:21:32.517Z,14.25
2022-10-28T21:24:00.064Z,14.13
2022-10-28T21:26:27.531Z,14.02
2022-10-28T21:28:56.588Z,15.05
2022-10-28T21:31:24.569Z,14.45
2022-10-28T21:33:53.637Z,14.32
2022-10-28T21:36:22.829Z,14.20
2022-10-28T21:38:55.713Z,13.75
2022-10-28T21:41:24.867Z,14.25
2022-10-28T21:43:54.406Z,14.10
2022-10-28T21:46:23.190Z,14.40
2022-10-28T21:48:50.833Z,13.20
2022-10-28T21:51:18.781Z,12.77
2022-10-28T21:53:46.372Z,13.82
2022-10-28T21:56:18.598Z,13.70
2022-10-28T21:58:49.237Z,14.23
2022-10-28T22:01:24.303Z,13.57
2022-10-28T22:03:55.511Z,13.45
2022-10-28T22:06:23.580Z,12.50
2022-10-28T22:08:54.651Z,13.52
2022-10-28T22:11:24.193Z,13.10
2022-10-28T22:14:02.118Z,13.00
2022-10-28T22:16:32.932Z,14.10
2022-10-28T22:19:03.317Z,13.63
2022-10-28T22:21:33.712Z,13.02
2022-10-28T22:24:01.197Z,14.65
2022-10-28T22:26:34.126Z,14.73
2022-10-28T22:29:04.141Z,14.60
2022-10-28T22:31:32.879Z,13.80
2022-10-28T22:34:01.318Z,15.20
2022-10-28T22:36:33.361Z,14.40
2022-10-28T22:39:00.811Z,14.45
2022-10-28T22:41:33.176Z,14.38
2022-10-28T22:44:02.670Z,15.50
2022-10-28T22:46:33.742Z,14.63
2022-10-28T22:49:01.307Z,13.85
2022-10-28T22:51:29.480Z,15.02
2022-10-28T22:53:56.943Z,15.95
2022-10-28T22:56:27.287Z,15.30
2022-10-28T22:59:02.115Z,15.68
2022-10-28T23:01:33.808Z,14.55
2022-10-28T23:04:03.822Z,16.00
2022-10-28T23:06:31.347Z,15.02
2022-10-28T23:08:59.000Z,15.38
2022-10-28T23:11:26.566Z,14.18
2022-10-28T23:13:55.338Z,15.57
2022-10-28T23:16:24.372Z,15.68
2022-10-28T23:18:53.332Z,15.13
2022-10-28T23:21:24.050Z,14.43
2022-10-28T23:23:59.714Z,15.60
2022-10-28T23:26:29.720Z,15.45
2022-10-28T23:29:00.003Z,15.18
2022-10-28T23:31:28.663Z,14.90
2022-10-28T23:33:56.270Z,15.80
2022-10-28T23:36:23.862Z,15.50
2022-10-28T23:38:51.299Z,15.73
2022-10-28T23:41:21.985Z,15.75
2022-10-28T23:43:49.737Z,15.63
2022-10-28T23:46:19.043Z,15.27
2022-10-28T23:48:46.528Z,15.85
2022-10-28T23:51:15.512Z,15.90
2022-10-28T23:53:43.053Z,16.45
2022-10-28T23:56:10.541Z,15.45
2022-10-28T23:58:38.086Z,15.07
